Kenema Airport

Jump to: basic info | weather | comments

Related pages: nearby airports | nearby navaids | notams | map

Basic information (top)

Codes: KEN GFKE
Location: lon 7.891290, lat -11.176600, elev 485 ft / 148 m msl
Status: medium_airport
Scheduled airline service: yes
Links: Wikipedia Mobile

Weather (top)

Current conditions for Roberts International Airport 111nm (205km) SSE (rec'd 2014/09/01 15:00Z):

GLRB 011500Z 22011KT 9999 BKN012 FEW023CB 27/24 Q1013 RMK CB-NE

Airport forecast for Roberts International Airport 111nm (205km) SSE (rec'd 2014/09/01 06:51Z):

TAF TAF GLRB 010400Z 0106/0212 23010KT 9999 BKN016 
      TEMPO 0107/0111 04006KT 9999 BKN014 
      TEMPO 0112/0116 21010KT 8000 RA/SHRA BKN012 
      BECMG 0118/0120 20008KT 9000

Latest comments (top)

No comments yet for Kenema Airport

More... (top)

See also NOTAMs and nearby airports and navaids, or visit the Kenema Airport page at the main OurAirports website..